Detall de PIREP

Printer-friendly versionPDF version

[2010/04/29 16:13:00]
Flight IATA:CT0001
Pilot Number:041
Company ICAO:CAT
Aircraft Type:F70/A
PAX:79
Departing Airport: LEDA
Destination Airport: LEVC
Alternate Airport:LEAL
Online: VATSIM
Route:OSVAK VILAR N609 BALDE N609 PELAT N609 DORMI N609 MATEX N609 CASIM N609 SOPET
Flight Level:FL210
No Slew and time accel
No pause
Crash detect
Detect pilot in Cockpit between each 30 and 45 minutes
16:13 Zero fuel Weight: 70523 Lbs, Fuel Weight: 6688 Lbs
16:13 VATSIM:LEDA 291600Z 17014KT CAVOK 23/10 Q1015
16:13 VATSIM:LEVC 291600Z 06008KT 030V100 CAVOK 22/14 Q1016 NOSIG
16:13 VOICE CATALONIAN
16:15 Parking Brakes off
16:22 Take-off
16:22 Take off Weight: 76780 Lbs
16:22 Wind: 199º @ 006 Knots Heading: 134º
16:22 POS N41º 43´ 28´´ E000º 32´ 24´´
16:22 Gear Up: 196 Knots
16:22 Flaps:1 at 196 Knots
16:23 Flaps:0 at 217 Knots
16:34 TOC
16:34 Fuel Weight: 4930 Lb
16:36 TOD

16:36 Fuel Weight: 4769 Lb
16:37 Wind:056º@008 Knots Heading: 195º Ground Speed: 350 Knots Altitude 19356 ft
16:51 Flaps:1 at 229 Knots
16:52 Wind:056º@007 Knots Heading: 267º Ground Speed: 248 Knots Altitude 5006 ft
16:54 Flaps:2 at 218 Knots
16:59 Gear Down: 190 Knots
16:59 Flaps:3 at 190 Knots
17:01 TouchDown:Rate -198 ft/min Speed: 133 Knots
17:02 VATSIM:LEVC 291630Z 06007KT 030V100 CAVOK 21/15 Q1016 NOSIG
17:02 Land
17:02 Wind:059º@007 Knots
17:02 Heading: 116º
17:02 Flight Duration: 00:40
17:02 Landing Weight: 73888 Lbs
17:02 POS N39º 29´ 25´´ W000º 29´ 02´´
17:04 Parking brakes on
17:04 Block to Block Duration: 00:49
17:04 Final Fuel: 3287 Lbls
17:04 Spent Fuel: 3401 Lbls
17:04 Flight Length: 181 NM
17:04 TOD Land Length: 109 NM

Exportar CSV

Powered by Drupal - Modified by Danger4k